ESGJ/JKG METAR and TAF weather

Enter ICAO airport designator
Station Type Date Time Source
ESGJ METAR 2020/12/06 01:50 UTC NOAA

ESGJ 060150Z AUTO 13004KT 8000 OVC014/// 04/04 Q1008


Station Type Date Time Source
ESGJ Decoded METAR 2020/12/06 01:50 UTC NOAA

Jonkoping Flygplats, Sweden (ESGJ) 57-46N 014-05E 232M
Dec 05, 2020 - 08:50 PM EST / 2020.12.06 0150 UTC
Wind: from the SE (130 degrees) at 5 MPH (4 KT):0
Visibility: 4 mile(s):0
Sky conditions: overcast
Temperature: 39 F (4 C)
Dew Point: 39 F (4 C)
Relative Humidity: 100%
Pressure (altimeter): 29.77 in. Hg (1008 hPa)
ob: ESGJ 060150Z AUTO 13004KT 8000 OVC014/// 04/04 Q1008
cycle: 2

Station Type Date Time Source
ESGJ TAF 2015/05/01 23:06 UTC NOAA

TAF TAF ESGJ 302359Z 3023/0101 CNL

Example: see airport list